Погода Верцейкина неделю

Варминско-Мазурское воеводство, Польша

18 - 24 мая
  • 18мая
    Сегодня
    +11°
    +23°
    Ясно и безоблачно
    ВремяПогодаТемператураВлажностьДавлениеВетер, м/сВероятность осадков
    02:00Ясно и безоблачно+10°C70 %750 мм2.5 м/с2 %
    05:00Ясно и безоблачно+10°C75 %750 мм2.4 м/с2 %
    08:00Ясно и безоблачно+16°C59 %750 мм2.9 м/с2 %
    11:00Ясно и безоблачно+21°C39 %750 мм4.2 м/с2 %
    14:00Ясно и безоблачно+23°C38 %749 мм4.4 м/с2 %
    17:00Практически безоблачно+23°C39 %748 мм3.9 м/с2 %
    20:00Ясно и безоблачно+19°C53 %748 мм3.2 м/с2 %
    23:00Ясно и безоблачно+15°C73 %748 мм3.6 м/с2 %
  • 19мая
    Воскресенье
    +11°
    +23°
    Практически безоблачно
    ВремяПогодаТемператураВлажностьДавлениеВетер, м/сВероятность осадков
    02:00Ясно и безоблачно+13°C83 %748 мм2.6 м/с2 %
    05:00Ясно и безоблачно+11°C91 %747 мм2.4 м/с2 %
    08:00Ясно и безоблачно+16°C65 %747 мм2.1 м/с2 %
    11:00Небольшая облачность+22°C36 %747 мм3.8 м/с2 %
    14:00Практически безоблачно+22°C36 %747 мм3.9 м/с5 %
    17:00Облачно с прояснениями+22°C34 %745 мм2.4 м/с10 %
    20:00Облачно с прояснениями+19°C51 %745 мм2.7 м/с5 %
    23:00Ясно и безоблачно+14°C73 %745 мм2.1 м/с4 %
  • 20мая
    Понедельник
    +12°
    +23°
    Практически безоблачно
    ВремяПогодаТемператураВлажностьДавлениеВетер, м/сВероятность осадков
    02:00Облачно с прояснениями+13°C79 %745 мм2.3 м/с2 %
    05:00Ясно и безоблачно+12°C88 %746 мм2.2 м/с3 %
    08:00Ясно и безоблачно+17°C73 %746 мм2.1 м/с7 %
    11:00Практически безоблачно+21°C52 %747 мм2.1 м/с24 %
    14:00Практически безоблачно+22°C47 %747 мм1.4 м/с40 %
    17:00Облачно с прояснениями, небольшой дождь+22°C51 %747 мм3.4 м/с61 %
    20:00Облачно с прояснениями+19°C71 %747 мм1.6 м/с29 %
    23:00Облачно с прояснениями+15°C88 %748 мм1.8 м/с2 %
  • 21мая
    Вторник
    +12°
    +25°
    Практически безоблачно
    ВремяПогодаТемператураВлажностьДавлениеВетер, м/сВероятность осадков
    02:00Небольшая облачность+13°C92 %748 мм2.0 м/с2 %
    05:00Небольшая облачность+13°C93 %748 мм1.7 м/с2 %
    08:00Ясно и безоблачно+18°C78 %749 мм2.2 м/с2 %
    11:00Практически безоблачно+22°C56 %749 мм3.0 м/с21 %
    14:00Практически безоблачно+23°C47 %748 мм3.1 м/с44 %
    17:00Небольшая облачность+24°C53 %748 мм3.9 м/с46 %
    20:00Ясно и безоблачно+21°C65 %748 мм3.6 м/с9 %
    23:00Ясно и безоблачно+17°C82 %748 мм3.7 м/с2 %
  • 22мая
    Среда
    +13°
    +24°
    Ясно и безоблачно
    ВремяПогодаТемператураВлажностьДавлениеВетер, м/сВероятность осадков
    02:00Ясно и безоблачно+14°C90 %748 мм3.8 м/с2 %
    05:00Ясно и безоблачно+13°C95 %748 мм3.9 м/с2 %
    08:00Практически безоблачно+18°C76 %748 мм6.0 м/с2 %
    11:00Небольшая облачность+22°C57 %748 мм6.4 м/с6 %
    14:00Ясно и безоблачно+24°C51 %747 мм6.1 м/с18 %
    17:00Небольшая облачность+24°C58 %746 мм6.0 м/с24 %
    20:00Практически безоблачно+21°C71 %747 мм5.2 м/с6 %
    23:00Ясно и безоблачно+17°C79 %747 мм5.6 м/с5 %
Мы используем cookies
Соглашаюсь